createdAt,value
2023-02-16T00:01:36.594Z,61.39
2023-02-16T00:03:39.281Z,61.96
2023-02-16T00:05:43.540Z,61.99
2023-02-16T00:07:46.092Z,61.72
2023-02-16T00:09:48.613Z,61.83
2023-02-16T00:12:10.928Z,62.04
2023-02-16T00:14:15.027Z,61.64
2023-02-16T00:16:19.242Z,61.98
2023-02-16T00:18:22.877Z,61.46
2023-02-16T00:20:25.513Z,61.32
2023-02-16T00:22:29.587Z,61.92
2023-02-16T00:24:32.744Z,62.63
2023-02-16T00:26:36.228Z,62.67
2023-02-16T00:28:38.807Z,63.46
2023-02-16T00:30:41.442Z,63.23
2023-02-16T00:32:44.118Z,63.47
2023-02-16T00:34:46.676Z,63.30
2023-02-16T00:36:49.217Z,63.46
2023-02-16T00:38:53.164Z,62.85
2023-02-16T00:40:55.744Z,63.17
2023-02-16T00:42:58.791Z,62.96
2023-02-16T00:45:01.634Z,63.11
2023-02-16T00:47:15.818Z,63.04
2023-02-16T00:49:19.928Z,62.94
2023-02-16T00:51:26.156Z,62.92
2023-02-16T00:53:29.094Z,63.45
2023-02-16T00:55:35.273Z,63.53
2023-02-16T00:57:42.045Z,63.45
2023-02-16T00:59:44.943Z,63.74
2023-02-16T01:01:47.983Z,63.63
2023-02-16T01:03:50.707Z,64.52
2023-02-16T01:06:14.512Z,64.45
2023-02-16T01:08:35.146Z,64.35
2023-02-16T01:10:57.489Z,64.46
2023-02-16T01:13:01.494Z,63.45
2023-02-16T01:15:04.258Z,63.55
2023-02-16T01:17:06.813Z,63.11
2023-02-16T01:19:11.482Z,63.01
2023-02-16T01:21:14.060Z,63.88
2023-02-16T01:23:16.687Z,64.04
2023-02-16T01:25:19.371Z,64.21
2023-02-16T01:27:23.253Z,64.57
2023-02-16T01:29:25.870Z,64.22
2023-02-16T01:31:28.699Z,64.17
2023-02-16T01:33:31.355Z,64.10
2023-02-16T01:35:35.234Z,64.14
2023-02-16T01:37:37.973Z,64.03
2023-02-16T01:39:40.542Z,62.86
2023-02-16T01:41:55.473Z,62.52
2023-02-16T01:44:04.106Z,62.06
2023-02-16T01:46:11.858Z,61.87
2023-02-16T01:48:21.937Z,61.66
2023-02-16T01:50:26.945Z,61.89
2023-02-16T01:52:34.985Z,61.46
2023-02-16T01:54:44.043Z,62.00
2023-02-16T01:56:51.066Z,62.16
2023-02-16T01:58:57.479Z,61.70
2023-02-16T02:01:40.441Z,61.33
2023-02-16T02:04:00.808Z,60.58
2023-02-16T02:06:03.407Z,61.31
2023-02-16T02:08:15.900Z,61.01
2023-02-16T02:10:26.723Z,61.70
2023-02-16T02:12:35.801Z,60.97
2023-02-16T02:14:40.640Z,61.01
2023-02-16T02:16:54.578Z,60.88
2023-02-16T02:18:57.352Z,60.98
2023-02-16T02:21:34.825Z,61.22
2023-02-16T02:23:47.831Z,61.25
2023-02-16T02:26:44.779Z,61.78
2023-02-16T02:28:59.244Z,61.38
2023-02-16T02:31:10.922Z,61.88
2023-02-16T02:33:40.585Z,61.53
2023-02-16T02:35:49.952Z,61.57
2023-02-16T02:37:58.821Z,62.18
2023-02-16T02:40:09.500Z,62.08
2023-02-16T02:42:19.332Z,62.53
2023-02-16T02:44:26.982Z,62.79
2023-02-16T02:46:33.297Z,62.50
2023-02-16T02:48:36.356Z,62.11
2023-02-16T02:51:06.711Z,62.55
2023-02-16T02:53:13.395Z,63.00
2023-02-16T02:55:34.051Z,62.67
2023-02-16T02:58:01.169Z,62.53
2023-02-16T03:00:26.672Z,62.59
2023-02-16T03:02:31.743Z,62.65
2023-02-16T03:04:34.787Z,62.21
2023-02-16T03:06:41.721Z,61.93
2023-02-16T03:08:47.077Z,61.84
2023-02-16T03:11:10.870Z,61.79
2023-02-16T03:13:18.331Z,61.92
2023-02-16T03:15:25.470Z,62.03
2023-02-16T03:17:52.223Z,62.25
2023-02-16T03:20:16.821Z,62.26
2023-02-16T03:22:36.800Z,62.10
2023-02-16T03:24:57.012Z,62.78
2023-02-16T03:27:17.505Z,62.38
2023-02-16T03:29:22.523Z,62.50
2023-02-16T03:31:31.206Z,61.96
2023-02-16T03:33:34.441Z,62.27
2023-02-16T03:35:37.494Z,62.48
2023-02-16T03:37:40.637Z,62.34
2023-02-16T03:39:57.715Z,62.83
2023-02-16T03:42:00.286Z,62.88
2023-02-16T03:44:02.822Z,62.46
2023-02-16T03:46:05.678Z,63.00
2023-02-16T03:48:10.064Z,62.67
2023-02-16T03:50:13.252Z,62.79
2023-02-16T03:52:15.831Z,62.66
2023-02-16T03:54:18.413Z,62.29
2023-02-16T03:56:21.003Z,62.80
2023-02-16T03:58:25.446Z,62.72
2023-02-16T04:00:28.156Z,62.93
2023-02-16T04:02:30.782Z,63.26
2023-02-16T04:04:34.731Z,62.61
2023-02-16T04:06:37.382Z,63.18
2023-02-16T04:08:40.018Z,63.55
2023-02-16T04:10:42.589Z,62.75
2023-02-16T04:12:44.744Z,63.45
2023-02-16T04:14:47.307Z,63.00
2023-02-16T04:16:50.000Z,62.99
2023-02-16T04:18:52.559Z,63.11
2023-02-16T04:20:56.455Z,63.44
2023-02-16T04:22:59.448Z,63.11
2023-02-16T04:25:02.030Z,62.97
2023-02-16T04:27:04.678Z,63.45
2023-02-16T04:29:07.234Z,63.11
2023-02-16T04:31:09.902Z,63.45
2023-02-16T04:33:12.568Z,63.59
2023-02-16T04:35:15.167Z,63.34
2023-02-16T04:37:19.050Z,63.53
2023-02-16T04:39:21.955Z,63.40
2023-02-16T04:41:26.216Z,63.25
2023-02-16T04:43:28.805Z,63.25
2023-02-16T04:45:31.542Z,63.19
2023-02-16T04:47:34.102Z,63.09
2023-02-16T04:49:36.693Z,63.28
2023-02-16T04:51:39.868Z,63.00
2023-02-16T04:53:43.917Z,63.67
2023-02-16T04:55:47.597Z,63.30
2023-02-16T04:57:50.223Z,63.17
2023-02-16T04:59:52.809Z,63.67
2023-02-16T05:01:55.391Z,63.37
2023-02-16T05:03:58.207Z,63.60
2023-02-16T05:06:01.190Z,62.84
2023-02-16T05:08:04.273Z,62.85
2023-02-16T05:10:09.376Z,63.48
2023-02-16T05:12:29.874Z,62.68
2023-02-16T05:14:45.449Z,62.66
2023-02-16T05:16:48.094Z,63.07
2023-02-16T05:18:50.654Z,63.24
2023-02-16T05:21:10.983Z,63.47
2023-02-16T05:23:14.092Z,62.98
2023-02-16T05:25:18.058Z,63.14
2023-02-16T05:27:22.410Z,63.51
2023-02-16T05:29:25.041Z,63.74
2023-02-16T05:31:28.559Z,63.44
2023-02-16T05:33:31.210Z,63.10
2023-02-16T05:35:34.828Z,63.15
2023-02-16T05:37:37.366Z,63.14
2023-02-16T05:39:39.990Z,63.20
2023-02-16T05:41:43.908Z,62.94
2023-02-16T05:43:49.502Z,62.93
2023-02-16T05:45:52.159Z,63.22
2023-02-16T05:47:54.775Z,62.62
2023-02-16T05:49:57.375Z,62.47
2023-02-16T05:51:59.954Z,62.82
2023-02-16T05:54:02.568Z,63.12
2023-02-16T05:56:07.376Z,63.39
2023-02-16T05:58:11.428Z,63.34
2023-02-16T06:00:15.231Z,63.43
2023-02-16T06:02:17.773Z,63.31
2023-02-16T06:04:21.974Z,63.54
2023-02-16T06:06:24.538Z,63.52
2023-02-16T06:08:27.702Z,64.00
2023-02-16T06:10:30.279Z,64.17
2023-02-16T06:12:34.499Z,63.57
2023-02-16T06:14:38.380Z,63.74
2023-02-16T06:16:43.041Z,63.13
2023-02-16T06:18:45.606Z,62.93
2023-02-16T06:20:48.725Z,62.97
2023-02-16T06:22:51.258Z,62.75
2023-02-16T06:24:53.775Z,62.80
2023-02-16T06:26:56.325Z,63.61
2023-02-16T06:28:59.071Z,63.11
2023-02-16T06:31:03.450Z,63.71
2023-02-16T06:33:06.333Z,63.44
2023-02-16T06:35:09.947Z,63.33
2023-02-16T06:37:12.615Z,63.18
2023-02-16T06:39:15.214Z,63.18
2023-02-16T06:41:31.196Z,63.13
2023-02-16T06:43:34.104Z,63.80
2023-02-16T06:45:36.682Z,63.30
2023-02-16T06:47:40.701Z,63.33
2023-02-16T06:49:43.272Z,63.61
2023-02-16T06:51:46.749Z,63.80
2023-02-16T06:53:49.456Z,64.09
2023-02-16T06:55:52.403Z,64.10
2023-02-16T06:57:54.998Z,64.35
2023-02-16T06:59:57.548Z,64.39
2023-02-16T07:02:00.105Z,64.61
2023-02-16T07:04:04.185Z,63.96
2023-02-16T07:06:07.241Z,64.57
2023-02-16T07:08:09.778Z,64.39
2023-02-16T07:10:12.658Z,64.98
2023-02-16T07:12:15.205Z,65.14
2023-02-16T07:14:17.784Z,64.90
2023-02-16T07:16:20.384Z,64.75
2023-02-16T07:18:22.915Z,64.58
2023-02-16T07:20:27.850Z,64.56
2023-02-16T07:22:30.694Z,64.98
2023-02-16T07:24:33.301Z,64.29
2023-02-16T07:26:38.611Z,64.73
2023-02-16T07:28:41.160Z,64.71
2023-02-16T07:30:43.793Z,64.15
2023-02-16T07:32:46.367Z,64.42
2023-02-16T07:34:49.529Z,65.15
2023-02-16T07:36:53.500Z,65.03
2023-02-16T07:38:56.094Z,65.56
2023-02-16T07:40:58.734Z,65.35
2023-02-16T07:43:02.132Z,66.46
2023-02-16T07:45:05.191Z,66.57
2023-02-16T07:47:07.738Z,66.43
2023-02-16T07:49:10.327Z,66.49
2023-02-16T07:51:12.890Z,66.58
2023-02-16T07:53:16.856Z,66.18
2023-02-16T07:55:19.562Z,65.77
2023-02-16T07:57:22.271Z,65.99
2023-02-16T07:59:25.054Z,66.06
2023-02-16T08:01:28.220Z,65.73
2023-02-16T08:03:30.813Z,66.04
2023-02-16T08:05:35.099Z,66.03
2023-02-16T08:07:37.704Z,64.43
2023-02-16T08:09:41.635Z,65.24
2023-02-16T08:11:44.524Z,65.18
2023-02-16T08:13:47.510Z,64.68
2023-02-16T08:15:50.146Z,64.65
2023-02-16T08:17:52.705Z,64.21
2023-02-16T08:19:55.306Z,63.83
2023-02-16T08:22:00.586Z,63.65
2023-02-16T08:24:05.221Z,63.60
2023-02-16T08:26:11.172Z,64.04
2023-02-16T08:28:14.769Z,63.86
2023-02-16T08:30:18.309Z,63.32
2023-02-16T08:32:21.038Z,62.32
2023-02-16T08:34:25.042Z,62.71
2023-02-16T08:36:32.294Z,62.88
2023-02-16T08:38:34.844Z,63.13
2023-02-16T08:40:37.400Z,63.45
2023-02-16T08:42:41.850Z,63.02
2023-02-16T08:44:44.677Z,63.54
2023-02-16T08:46:48.539Z,63.57
2023-02-16T08:48:51.198Z,63.76
2023-02-16T08:50:54.283Z,62.92
2023-02-16T08:52:58.251Z,62.24
2023-02-16T08:55:00.868Z,61.55
2023-02-16T08:57:03.918Z,62.08
2023-02-16T08:59:07.846Z,62.00
2023-02-16T09:01:12.763Z,62.58
2023-02-16T09:03:16.429Z,62.00
2023-02-16T09:05:19.239Z,61.32
2023-02-16T09:07:22.264Z,61.20
2023-02-16T09:09:26.374Z,61.11
2023-02-16T09:11:29.051Z,61.00
2023-02-16T09:13:31.659Z,60.37
2023-02-16T09:15:36.995Z,60.65
2023-02-16T09:17:40.894Z,60.77
2023-02-16T09:19:44.593Z,59.81
2023-02-16T09:21:48.569Z,59.95
2023-02-16T09:23:51.820Z,60.01
2023-02-16T09:25:54.403Z,60.56
2023-02-16T09:27:57.808Z,61.15
2023-02-16T09:30:00.395Z,61.07
2023-02-16T09:32:04.411Z,61.09
2023-02-16T09:34:09.894Z,61.07
2023-02-16T09:36:14.799Z,60.25
2023-02-16T09:38:17.763Z,60.28
2023-02-16T09:40:20.876Z,59.59
2023-02-16T09:42:32.970Z,59.75
2023-02-16T09:44:50.497Z,59.92
2023-02-16T09:46:56.163Z,59.96
2023-02-16T09:49:03.719Z,60.01
2023-02-16T09:51:08.695Z,60.02
2023-02-16T09:53:22.463Z,58.98
2023-02-16T09:55:30.525Z,58.98
2023-02-16T09:57:43.188Z,59.49
2023-02-16T09:59:52.426Z,60.30
2023-02-16T10:02:01.709Z,60.47
2023-02-16T10:04:23.970Z,60.55
2023-02-16T10:06:37.468Z,60.63
2023-02-16T10:08:43.068Z,60.90
2023-02-16T10:10:51.786Z,61.01
2023-02-16T10:12:57.946Z,61.24
2023-02-16T10:15:07.545Z,61.38
2023-02-16T10:17:18.169Z,61.61
2023-02-16T10:19:26.118Z,61.66
2023-02-16T10:21:31.586Z,61.75
2023-02-16T10:23:44.850Z,61.50
2023-02-16T10:25:54.783Z,61.53
2023-02-16T10:28:08.217Z,61.50
2023-02-16T10:30:15.247Z,61.38
2023-02-16T10:32:29.231Z,61.06
2023-02-16T10:34:45.332Z,60.59
2023-02-16T10:37:02.025Z,60.61
2023-02-16T10:39:10.531Z,60.68
2023-02-16T10:41:18.637Z,61.00
2023-02-16T10:43:34.946Z,60.38
2023-02-16T10:45:42.995Z,60.04
2023-02-16T10:47:47.121Z,60.00
2023-02-16T10:49:51.486Z,60.13
2023-02-16T10:51:56.424Z,60.25
2023-02-16T10:54:02.891Z,59.68
2023-02-16T10:56:27.666Z,60.31
2023-02-16T10:58:39.921Z,60.25
2023-02-16T11:00:51.638Z,60.25
2023-02-16T11:02:54.996Z,60.65
2023-02-16T11:05:00.715Z,60.64
2023-02-16T11:07:05.999Z,60.57
2023-02-16T11:09:16.151Z,60.62
2023-02-16T11:11:22.758Z,60.63
2023-02-16T11:13:29.214Z,58.80
2023-02-16T11:15:32.702Z,59.04
2023-02-16T11:17:52.506Z,59.00
2023-02-16T11:20:01.602Z,57.95
2023-02-16T11:22:06.001Z,56.55
2023-02-16T11:24:13.038Z,56.30
2023-02-16T11:26:25.002Z,56.25
2023-02-16T11:28:32.350Z,55.70
2023-02-16T11:30:36.991Z,55.35
2023-02-16T11:32:39.579Z,55.11
2023-02-16T11:34:46.916Z,54.38
2023-02-16T11:36:50.093Z,54.16
2023-02-16T11:39:06.910Z,54.05
2023-02-16T11:41:09.562Z,53.76
2023-02-16T11:43:18.945Z,53.18
2023-02-16T11:45:30.935Z,52.21
2023-02-16T11:47:37.667Z,52.02
2023-02-16T11:49:42.392Z,52.05
2023-02-16T11:51:44.943Z,51.72
2023-02-16T11:54:00.857Z,51.97
2023-02-16T11:56:24.239Z,51.65
2023-02-16T11:58:29.195Z,49.85
2023-02-16T12:00:31.942Z,49.66
2023-02-16T12:02:50.686Z,48.90
2023-02-16T12:05:07.477Z,48.97
2023-02-16T12:07:20.241Z,49.13
2023-02-16T12:09:34.305Z,48.93
2023-02-16T12:11:52.202Z,48.42
2023-02-16T12:14:09.042Z,44.92
2023-02-16T12:16:25.188Z,43.49
2023-02-16T12:18:34.207Z,42.73
2023-02-16T12:20:46.664Z,42.57
2023-02-16T12:22:50.887Z,41.92
2023-02-16T12:25:06.093Z,42.38
2023-02-16T12:27:19.511Z,43.61
2023-02-16T12:29:38.402Z,43.78
2023-02-16T12:32:01.119Z,44.20
2023-02-16T12:34:15.851Z,43.91
2023-02-16T12:36:40.982Z,44.36
2023-02-16T12:38:53.720Z,43.50
2023-02-16T12:41:05.481Z,43.63
2023-02-16T12:43:26.457Z,43.41
2023-02-16T12:45:34.212Z,42.65
2023-02-16T12:47:42.455Z,42.84
2023-02-16T12:49:52.551Z,43.33
2023-02-16T12:52:04.319Z,44.50
2023-02-16T12:54:14.383Z,45.22
2023-02-16T12:56:22.001Z,45.14
2023-02-16T12:58:31.112Z,45.22
2023-02-16T13:00:43.663Z,45.15
2023-02-16T13:02:51.141Z,45.64
2023-02-16T13:05:03.056Z,44.17
2023-02-16T13:07:17.845Z,43.16
2023-02-16T13:09:33.978Z,42.14
2023-02-16T13:11:41.159Z,42.77
2023-02-16T13:13:47.624Z,42.33
2023-02-16T13:15:53.747Z,40.25
2023-02-16T13:17:58.852Z,39.72
2023-02-16T13:20:03.380Z,39.57
2023-02-16T13:22:36.062Z,39.49
2023-02-16T13:24:50.484Z,38.92
2023-02-16T13:27:07.192Z,38.13
2023-02-16T13:29:52.388Z,36.90
2023-02-16T13:32:06.963Z,36.02
2023-02-16T13:34:48.794Z,36.07
2023-02-16T13:37:06.154Z,36.48
2023-02-16T13:39:25.372Z,36.63
2023-02-16T13:41:51.971Z,36.78
2023-02-16T13:43:58.813Z,37.23
2023-02-16T13:46:08.229Z,37.48
2023-02-16T13:48:17.176Z,37.62
2023-02-16T13:50:29.937Z,37.87
2023-02-16T13:52:35.552Z,38.03
2023-02-16T13:54:43.562Z,38.20
2023-02-16T13:56:46.442Z,38.00
2023-02-16T13:58:49.588Z,38.38
2023-02-16T14:00:53.014Z,38.25
2023-02-16T14:02:59.296Z,37.30
2023-02-16T14:05:10.499Z,37.12
2023-02-16T14:07:33.324Z,37.01
2023-02-16T14:09:49.645Z,37.02
2023-02-16T14:12:03.768Z,37.49
2023-02-16T14:14:30.101Z,37.02
2023-02-16T14:16:34.793Z,36.66
2023-02-16T14:18:43.543Z,36.79
2023-02-16T14:20:46.133Z,37.22
2023-02-16T14:22:51.999Z,37.60
2023-02-16T14:24:56.970Z,36.80
2023-02-16T14:27:01.454Z,36.97
2023-02-16T14:29:12.524Z,37.43
2023-02-16T14:31:19.219Z,37.77
2023-02-16T14:33:26.791Z,38.21
2023-02-16T14:35:34.890Z,38.81
2023-02-16T14:37:41.537Z,38.93
2023-02-16T14:40:06.419Z,39.21
2023-02-16T14:42:10.078Z,39.56
2023-02-16T14:44:38.333Z,40.14
2023-02-16T14:46:49.355Z,40.18
2023-02-16T14:49:13.923Z,40.74
2023-02-16T14:51:48.071Z,41.05
2023-02-16T14:54:22.477Z,40.18
2023-02-16T14:56:39.267Z,40.61
2023-02-16T14:58:52.499Z,41.23
2023-02-16T15:01:03.970Z,41.11
2023-02-16T15:03:18.029Z,41.49
2023-02-16T15:05:22.936Z,41.39
2023-02-16T15:07:29.160Z,41.57
2023-02-16T15:09:34.316Z,42.08
2023-02-16T15:12:00.241Z,42.35
2023-02-16T15:14:09.490Z,42.69
2023-02-16T15:16:15.342Z,43.01
2023-02-16T15:18:21.442Z,43.27
2023-02-16T15:20:29.419Z,43.06
2023-02-16T15:22:33.436Z,43.29
2023-02-16T15:24:35.974Z,42.40
2023-02-16T15:26:41.434Z,42.66
2023-02-16T15:28:53.267Z,42.61
2023-02-16T15:30:56.899Z,42.85
2023-02-16T15:33:02.365Z,43.06
2023-02-16T15:35:13.757Z,43.20
2023-02-16T15:37:32.536Z,43.17
2023-02-16T15:39:49.788Z,43.00
2023-02-16T15:42:10.892Z,42.37
2023-02-16T15:44:29.847Z,42.27
2023-02-16T15:46:34.828Z,42.61
2023-02-16T15:48:38.662Z,42.98
2023-02-16T15:50:41.395Z,43.37
2023-02-16T15:52:44.056Z,43.75
2023-02-16T15:54:50.247Z,43.66
2023-02-16T15:56:55.260Z,43.61
2023-02-16T15:59:00.858Z,43.50
2023-02-16T16:01:03.767Z,43.91
2023-02-16T16:03:10.559Z,43.91
2023-02-16T16:05:25.039Z,44.42
2023-02-16T16:07:30.906Z,43.28
2023-02-16T16:09:35.456Z,44.25
2023-02-16T16:11:39.485Z,44.59
2023-02-16T16:13:42.741Z,44.74
2023-02-16T16:15:49.420Z,44.92
2023-02-16T16:17:53.842Z,44.84
2023-02-16T16:19:57.339Z,44.97
2023-02-16T16:22:00.208Z,44.57
2023-02-16T16:24:05.090Z,44.05
2023-02-16T16:26:18.643Z,44.25
2023-02-16T16:28:37.894Z,44.26
2023-02-16T16:30:45.147Z,44.52
2023-02-16T16:32:48.116Z,45.11
2023-02-16T16:34:50.823Z,45.29
2023-02-16T16:36:56.333Z,44.94
2023-02-16T16:39:27.965Z,44.96
2023-02-16T16:41:30.894Z,44.96
2023-02-16T16:43:37.844Z,44.98
2023-02-16T16:45:42.874Z,45.29
2023-02-16T16:47:51.965Z,45.97
2023-02-16T16:49:57.275Z,46.40
2023-02-16T16:51:59.825Z,46.42
2023-02-16T16:54:04.105Z,46.58
2023-02-16T16:56:11.044Z,46.69
2023-02-16T16:58:14.219Z,46.77
2023-02-16T17:00:19.374Z,47.19
2023-02-16T17:02:21.896Z,47.60
2023-02-16T17:04:24.568Z,47.91
2023-02-16T17:06:28.112Z,48.27
2023-02-16T17:08:30.687Z,48.41
2023-02-16T17:10:33.404Z,48.48
2023-02-16T17:12:36.400Z,49.09
2023-02-16T17:14:39.136Z,48.43
2023-02-16T17:16:45.037Z,48.80
2023-02-16T17:18:47.644Z,48.85
2023-02-16T17:20:51.147Z,48.84
2023-02-16T17:22:53.723Z,48.56
2023-02-16T17:24:56.234Z,49.08
2023-02-16T17:26:58.809Z,48.85
2023-02-16T17:29:04.850Z,49.33
2023-02-16T17:31:09.681Z,48.51
2023-02-16T17:33:13.761Z,49.25
2023-02-16T17:35:16.410Z,49.48
2023-02-16T17:37:19.693Z,49.18
2023-02-16T17:39:22.298Z,49.42
2023-02-16T17:41:27.435Z,49.34
2023-02-16T17:43:30.135Z,49.76
2023-02-16T17:45:32.768Z,49.50
2023-02-16T17:47:35.618Z,49.73
2023-02-16T17:49:40.191Z,50.01
2023-02-16T17:51:43.157Z,49.64
2023-02-16T17:53:45.970Z,49.63
2023-02-16T17:55:50.359Z,49.45
2023-02-16T17:57:52.902Z,49.82
2023-02-16T17:59:55.627Z,49.90
2023-02-16T18:01:58.203Z,49.94
2023-02-16T18:04:00.816Z,50.72
2023-02-16T18:06:05.318Z,50.58
2023-02-16T18:08:08.369Z,50.67
2023-02-16T18:10:17.656Z,50.65
2023-02-16T18:12:20.246Z,50.94
2023-02-16T18:14:22.775Z,51.01
2023-02-16T18:16:27.906Z,51.17
2023-02-16T18:18:32.861Z,51.93
2023-02-16T18:20:35.734Z,51.91
2023-02-16T18:22:39.598Z,51.87
2023-02-16T18:24:44.294Z,52.07
2023-02-16T18:26:46.885Z,52.23
2023-02-16T18:28:51.662Z,51.97
2023-02-16T18:30:54.585Z,51.67
2023-02-16T18:32:57.209Z,52.33
2023-02-16T18:34:59.836Z,52.46
2023-02-16T18:37:02.379Z,52.89
2023-02-16T18:39:07.364Z,53.25
2023-02-16T18:41:10.338Z,53.43
2023-02-16T18:43:13.610Z,53.77
2023-02-16T18:45:16.179Z,53.75
2023-02-16T18:47:19.125Z,53.94
2023-02-16T18:49:21.651Z,53.39
2023-02-16T18:51:28.820Z,53.21
2023-02-16T18:53:31.610Z,53.65
2023-02-16T18:55:35.770Z,53.66
2023-02-16T18:57:38.632Z,53.24
2023-02-16T18:59:41.194Z,53.55
2023-02-16T19:01:43.809Z,53.20
2023-02-16T19:03:46.398Z,53.19
2023-02-16T19:05:49.005Z,53.39
2023-02-16T19:07:52.123Z,52.77
2023-02-16T19:09:54.684Z,52.57
2023-02-16T19:11:58.518Z,53.22
2023-02-16T19:14:01.106Z,53.43
2023-02-16T19:16:03.996Z,53.28
2023-02-16T19:18:06.890Z,52.72
2023-02-16T19:20:12.140Z,52.47
2023-02-16T19:22:14.702Z,52.54
2023-02-16T19:24:17.290Z,52.41
2023-02-16T19:26:19.931Z,52.12
2023-02-16T19:28:23.924Z,52.31
2023-02-16T19:30:29.437Z,52.50
2023-02-16T19:32:32.118Z,52.30
2023-02-16T19:34:36.197Z,52.46
2023-02-16T19:36:38.711Z,52.51
2023-02-16T19:38:41.749Z,51.97
2023-02-16T19:40:44.303Z,52.08
2023-02-16T19:42:47.984Z,52.24
2023-02-16T19:44:52.187Z,51.94
2023-02-16T19:46:54.706Z,52.43
2023-02-16T19:48:58.646Z,52.65
2023-02-16T19:51:02.606Z,52.39
2023-02-16T19:53:05.148Z,52.19
2023-02-16T19:55:10.064Z,52.30
2023-02-16T19:57:13.781Z,52.43
2023-02-16T19:59:16.531Z,52.83
2023-02-16T20:01:23.097Z,52.98
2023-02-16T20:03:26.085Z,52.77
2023-02-16T20:05:29.179Z,52.83
2023-02-16T20:07:31.733Z,53.02
2023-02-16T20:09:34.390Z,52.48
2023-02-16T20:11:39.651Z,52.85
2023-02-16T20:13:42.417Z,52.89
2023-02-16T20:15:45.057Z,52.75
2023-02-16T20:17:49.076Z,52.86
2023-02-16T20:19:51.648Z,52.84
2023-02-16T20:21:54.192Z,52.69
2023-02-16T20:23:58.764Z,52.57
2023-02-16T20:26:01.717Z,52.66
2023-02-16T20:28:04.280Z,52.15
2023-02-16T20:30:08.546Z,52.50
2023-02-16T20:32:11.280Z,52.87
2023-02-16T20:34:15.267Z,52.70
2023-02-16T20:36:18.217Z,52.71
2023-02-16T20:38:21.115Z,53.23
2023-02-16T20:40:24.846Z,53.03
2023-02-16T20:42:27.534Z,53.09
2023-02-16T20:44:30.155Z,53.11
2023-02-16T20:46:32.805Z,53.37
2023-02-16T20:48:35.926Z,53.25
2023-02-16T20:50:39.913Z,53.21
2023-02-16T20:52:43.139Z,52.76
2023-02-16T20:54:45.670Z,52.87
2023-02-16T20:56:48.217Z,52.85
2023-02-16T20:58:53.355Z,53.31
2023-02-16T21:00:56.826Z,53.23
2023-02-16T21:02:59.422Z,53.61
2023-02-16T21:05:01.966Z,53.58
2023-02-16T21:07:05.930Z,53.41
2023-02-16T21:09:09.714Z,53.19
2023-02-16T21:11:16.051Z,53.39
2023-02-16T21:13:18.627Z,53.15
2023-02-16T21:15:21.257Z,53.23
2023-02-16T21:17:23.884Z,53.76
2023-02-16T21:19:26.414Z,53.65
2023-02-16T21:21:29.000Z,54.22
2023-02-16T21:23:33.033Z,54.11
2023-02-16T21:25:36.057Z,53.92
2023-02-16T21:27:38.596Z,53.47
2023-02-16T21:29:41.143Z,53.31
2023-02-16T21:31:43.783Z,53.10
2023-02-16T21:33:46.623Z,52.79
2023-02-16T21:35:49.210Z,51.95
2023-02-16T21:37:51.836Z,51.59
2023-02-16T21:40:13.350Z,51.54
2023-02-16T21:42:15.928Z,51.37
2023-02-16T21:44:19.040Z,51.27
2023-02-16T21:46:22.244Z,51.21
2023-02-16T21:48:42.570Z,51.38
2023-02-16T21:50:45.157Z,51.79
2023-02-16T21:52:47.699Z,51.63
2023-02-16T21:55:07.991Z,51.39
2023-02-16T21:57:11.931Z,51.65
2023-02-16T21:59:16.883Z,51.84
2023-02-16T22:01:24.694Z,52.08
2023-02-16T22:03:27.474Z,51.67
2023-02-16T22:05:30.054Z,50.71
2023-02-16T22:07:34.150Z,50.74
2023-02-16T22:09:36.711Z,49.64
2023-02-16T22:11:39.939Z,50.10
2023-02-16T22:13:43.849Z,49.75
2023-02-16T22:15:46.408Z,49.97
2023-02-16T22:17:50.112Z,49.55
2023-02-16T22:19:53.047Z,49.70
2023-02-16T22:21:55.596Z,49.35
2023-02-16T22:24:00.668Z,49.36
2023-02-16T22:26:04.126Z,49.08
2023-02-16T22:28:06.960Z,49.32
2023-02-16T22:30:11.713Z,49.53
2023-02-16T22:32:14.763Z,49.64
2023-02-16T22:34:19.206Z,49.80
2023-02-16T22:36:21.757Z,49.56
2023-02-16T22:38:24.313Z,49.78
2023-02-16T22:40:26.861Z,50.19
2023-02-16T22:42:30.241Z,49.74
2023-02-16T22:44:32.831Z,48.97
2023-02-16T22:46:36.837Z,48.62
2023-02-16T22:48:39.558Z,48.29
2023-02-16T22:50:42.120Z,47.77
2023-02-16T22:52:44.723Z,47.61
2023-02-16T22:54:47.286Z,47.33
2023-02-16T22:56:49.914Z,47.56
2023-02-16T22:58:52.436Z,47.82
2023-02-16T23:00:55.797Z,47.59
2023-02-16T23:02:59.779Z,47.41
2023-02-16T23:05:02.375Z,47.98
2023-02-16T23:07:05.004Z,47.67
2023-02-16T23:09:10.093Z,48.09
2023-02-16T23:11:13.518Z,48.03
2023-02-16T23:13:16.073Z,48.50
2023-02-16T23:15:18.703Z,47.77
2023-02-16T23:17:21.282Z,47.70
2023-02-16T23:19:27.373Z,47.80
2023-02-16T23:21:32.033Z,48.04
2023-02-16T23:23:34.757Z,48.34
2023-02-16T23:25:36.463Z,48.03
2023-02-16T23:27:38.908Z,48.16
2023-02-16T23:29:41.511Z,48.44
2023-02-16T23:31:46.758Z,48.77
2023-02-16T23:33:50.461Z,48.37
2023-02-16T23:35:55.806Z,49.09
2023-02-16T23:37:59.866Z,49.05
2023-02-16T23:40:02.495Z,49.51
2023-02-16T23:42:05.435Z,48.93
2023-02-16T23:44:09.377Z,49.21
2023-02-16T23:46:12.866Z,49.63
2023-02-16T23:48:15.561Z,49.67
2023-02-16T23:50:18.414Z,49.46
2023-02-16T23:52:22.367Z,49.44
2023-02-16T23:54:24.949Z,49.90
2023-02-16T23:56:29.484Z,50.15
2023-02-16T23:58:34.039Z,50.26
